sensor_id;sensor_type;location;lat;lon;timestamp;pressure;altitude;pressure_sealevel;temperature;humidity
66090;BME280;53113;45.602;11.904;2022-10-22T00:01:36;101618.52;;;17.76;66.04
66090;BME280;53113;45.602;11.904;2022-10-22T00:04:04;101616.01;;;17.74;66.02
66090;BME280;53113;45.602;11.904;2022-10-22T00:06:31;101616.29;;;17.73;66.14
66090;BME280;53113;45.602;11.904;2022-10-22T00:08:57;101602.83;;;17.72;66.19
66090;BME280;53113;45.602;11.904;2022-10-22T00:11:22;101597.69;;;17.71;66.32
66090;BME280;53113;45.602;11.904;2022-10-22T00:13:49;101601.64;;;17.73;66.47
66090;BME280;53113;45.602;11.904;2022-10-22T00:16:15;101600.67;;;17.74;66.33
66090;BME280;53113;45.602;11.904;2022-10-22T00:18:41;101595.61;;;17.74;66.43
66090;BME280;53113;45.602;11.904;2022-10-22T00:21:07;101600.17;;;17.73;66.52
66090;BME280;53113;45.602;11.904;2022-10-22T00:23:34;101605.14;;;17.72;66.54
66090;BME280;53113;45.602;11.904;2022-10-22T00:26:00;101597.58;;;17.70;66.67
66090;BME280;53113;45.602;11.904;2022-10-22T00:28:26;101592.29;;;17.69;66.78
66090;BME280;53113;45.602;11.904;2022-10-22T00:30:59;101592.02;;;17.70;66.83
66090;BME280;53113;45.602;11.904;2022-10-22T00:33:27;101593.98;;;17.72;66.88
66090;BME280;53113;45.602;11.904;2022-10-22T00:35:53;101586.95;;;17.75;66.88
66090;BME280;53113;45.602;11.904;2022-10-22T00:38:20;101589.17;;;17.76;67.07
66090;BME280;53113;45.602;11.904;2022-10-22T00:40:46;101594.09;;;17.77;67.04
66090;BME280;53113;45.602;11.904;2022-10-22T00:43:13;101595.84;;;17.77;67.09
66090;BME280;53113;45.602;11.904;2022-10-22T00:45:40;101592.39;;;17.78;67.16
66090;BME280;53113;45.602;11.904;2022-10-22T00:48:22;101588.29;;;17.78;67.21
66090;BME280;53113;45.602;11.904;2022-10-22T00:51:03;101585.40;;;17.80;67.23
66090;BME280;53113;45.602;11.904;2022-10-22T00:53:34;101582.86;;;17.84;67.26
66090;BME280;53113;45.602;11.904;2022-10-22T00:56:02;101578.52;;;17.87;67.14
66090;BME280;53113;45.602;11.904;2022-10-22T00:58:32;101575.70;;;17.90;67.12
66090;BME280;53113;45.602;11.904;2022-10-22T01:01:00;101566.76;;;17.92;67.22
66090;BME280;53113;45.602;11.904;2022-10-22T01:03:27;101551.15;;;17.92;67.26
66090;BME280;53113;45.602;11.904;2022-10-22T01:05:56;101548.80;;;17.93;67.29
66090;BME280;53113;45.602;11.904;2022-10-22T01:08:52;101545.79;;;17.92;67.38
66090;BME280;53113;45.602;11.904;2022-10-22T01:11:28;101547.74;;;17.92;67.34
66090;BME280;53113;45.602;11.904;2022-10-22T01:14:08;101547.91;;;17.94;67.30
66090;BME280;53113;45.602;11.904;2022-10-22T01:22:54;101519.80;;;18.03;67.13
66090;BME280;53113;45.602;11.904;2022-10-22T01:25:36;101516.64;;;18.05;67.22
66090;BME280;53113;45.602;11.904;2022-10-22T01:31:11;101496.88;;;18.03;67.40
66090;BME280;53113;45.602;11.904;2022-10-22T01:33:39;101494.51;;;18.02;67.53
66090;BME280;53113;45.602;11.904;2022-10-22T01:36:07;101497.67;;;18.03;67.45
66090;BME280;53113;45.602;11.904;2022-10-22T01:38:35;101499.01;;;18.06;67.44
66090;BME280;53113;45.602;11.904;2022-10-22T01:41:01;101501.60;;;18.09;67.46
66090;BME280;53113;45.602;11.904;2022-10-22T01:43:27;101503.77;;;18.10;67.43
66090;BME280;53113;45.602;11.904;2022-10-22T01:45:58;101501.75;;;18.11;67.57
66090;BME280;53113;45.602;11.904;2022-10-22T01:48:37;101495.54;;;18.10;67.71
66090;BME280;53113;45.602;11.904;2022-10-22T01:51:24;101488.88;;;18.10;67.68
66090;BME280;53113;45.602;11.904;2022-10-22T01:57:03;101498.29;;;18.09;67.96
66090;BME280;53113;45.602;11.904;2022-10-22T01:59:39;101499.58;;;18.13;67.96
66090;BME280;53113;45.602;11.904;2022-10-22T02:04:52;101501.38;;;18.17;67.98
66090;BME280;53113;45.602;11.904;2022-10-22T02:07:24;101491.77;;;18.17;68.03
66090;BME280;53113;45.602;11.904;2022-10-22T02:09:53;101483.20;;;18.17;68.05
66090;BME280;53113;45.602;11.904;2022-10-22T02:12:21;101483.14;;;18.16;68.09
66090;BME280;53113;45.602;11.904;2022-10-22T02:14:49;101483.08;;;18.15;68.13
66090;BME280;53113;45.602;11.904;2022-10-22T02:17:19;101479.63;;;18.15;68.18
66090;BME280;53113;45.602;11.904;2022-10-22T02:19:56;101467.45;;;18.17;68.25
66090;BME280;53113;45.602;11.904;2022-10-22T02:22:24;101463.14;;;18.19;68.34
66090;BME280;53113;45.602;11.904;2022-10-22T02:24:51;101454.33;;;18.19;68.37
66090;BME280;53113;45.602;11.904;2022-10-22T02:27:25;101446.67;;;18.19;68.61
66090;BME280;53113;45.602;11.904;2022-10-22T02:30:18;101451.48;;;18.17;68.64
66090;BME280;53113;45.602;11.904;2022-10-22T02:33:02;101454.55;;;18.15;68.83
66090;BME280;53113;45.602;11.904;2022-10-22T02:35:34;101458.77;;;18.16;68.97
66090;BME280;53113;45.602;11.904;2022-10-22T02:38:01;101454.46;;;18.18;69.01
66090;BME280;53113;45.602;11.904;2022-10-22T02:40:29;101449.98;;;18.20;69.03
66090;BME280;53113;45.602;11.904;2022-10-22T02:42:55;101453.90;;;18.22;69.23
66090;BME280;53113;45.602;11.904;2022-10-22T02:45:22;101455.80;;;18.21;69.36
66090;BME280;53113;45.602;11.904;2022-10-22T02:47:48;101451.66;;;18.21;69.48
66090;BME280;53113;45.602;11.904;2022-10-22T02:50:13;101450.65;;;18.20;69.62
66090;BME280;53113;45.602;11.904;2022-10-22T02:52:40;101443.80;;;18.20;69.70
66090;BME280;53113;45.602;11.904;2022-10-22T02:55:07;101451.27;;;18.23;69.70
66090;BME280;53113;45.602;11.904;2022-10-22T02:57:33;101458.92;;;18.25;69.80
66090;BME280;53113;45.602;11.904;2022-10-22T02:59:59;101453.05;;;18.27;69.91
66090;BME280;53113;45.602;11.904;2022-10-22T03:02:25;101453.83;;;18.27;69.97
66090;BME280;53113;45.602;11.904;2022-10-22T03:04:51;101450.10;;;18.26;70.01
66090;BME280;53113;45.602;11.904;2022-10-22T03:07:16;101448.20;;;18.25;70.02
66090;BME280;53113;45.602;11.904;2022-10-22T03:09:42;101445.27;;;18.26;70.12
66090;BME280;53113;45.602;11.904;2022-10-22T03:12:08;101444.84;;;18.29;70.17
66090;BME280;53113;45.602;11.904;2022-10-22T03:14:34;101444.91;;;18.32;70.15
66090;BME280;53113;45.602;11.904;2022-10-22T03:17:00;101456.81;;;18.33;70.23
66090;BME280;53113;45.602;11.904;2022-10-22T03:19:26;101449.55;;;18.32;70.47
66090;BME280;53113;45.602;11.904;2022-10-22T03:21:58;101439.33;;;18.30;70.55
66090;BME280;53113;45.602;11.904;2022-10-22T03:24:33;101428.20;;;18.30;70.62
66090;BME280;53113;45.602;11.904;2022-10-22T03:27:00;101434.76;;;18.31;70.70
66090;BME280;53113;45.602;11.904;2022-10-22T03:29:27;101438.77;;;18.32;70.68
66090;BME280;53113;45.602;11.904;2022-10-22T03:31:54;101441.95;;;18.31;70.77
66090;BME280;53113;45.602;11.904;2022-10-22T03:34:20;101434.14;;;18.30;70.87
66090;BME280;53113;45.602;11.904;2022-10-22T03:36:46;101428.05;;;18.28;71.11
66090;BME280;53113;45.602;11.904;2022-10-22T03:39:15;101421.88;;;18.27;71.06
66090;BME280;53113;45.602;11.904;2022-10-22T03:41:43;101410.86;;;18.28;71.20
66090;BME280;53113;45.602;11.904;2022-10-22T03:44:09;101411.71;;;18.29;71.11
66090;BME280;53113;45.602;11.904;2022-10-22T03:46:36;101415.30;;;18.28;71.29
66090;BME280;53113;45.602;11.904;2022-10-22T03:49:01;101416.12;;;18.27;71.43
66090;BME280;53113;45.602;11.904;2022-10-22T03:51:27;101419.14;;;18.26;71.55
66090;BME280;53113;45.602;11.904;2022-10-22T03:53:54;101412.97;;;18.24;71.58
66090;BME280;53113;45.602;11.904;2022-10-22T03:56:19;101411.73;;;18.26;71.62
66090;BME280;53113;45.602;11.904;2022-10-22T03:58:45;101399.52;;;18.27;71.66
66090;BME280;53113;45.602;11.904;2022-10-22T04:01:12;101401.11;;;18.24;71.85
66090;BME280;53113;45.602;11.904;2022-10-22T04:03:39;101396.83;;;18.23;72.05
66090;BME280;53113;45.602;11.904;2022-10-22T04:06:12;101391.42;;;18.21;72.13
66090;BME280;53113;45.602;11.904;2022-10-22T04:08:39;101394.01;;;18.20;72.15
66090;BME280;53113;45.602;11.904;2022-10-22T04:11:06;101387.83;;;18.21;72.20
66090;BME280;53113;45.602;11.904;2022-10-22T04:13:33;101393.34;;;18.23;72.19
66090;BME280;53113;45.602;11.904;2022-10-22T04:16:14;101399.06;;;18.24;72.32
66090;BME280;53113;45.602;11.904;2022-10-22T04:18:41;101408.27;;;18.23;72.47
66090;BME280;53113;45.602;11.904;2022-10-22T04:21:09;101409.74;;;18.22;72.52
66090;BME280;53113;45.602;11.904;2022-10-22T04:23:35;101401.94;;;18.23;72.54
66090;BME280;53113;45.602;11.904;2022-10-22T04:26:04;101402.09;;;18.26;72.61
66090;BME280;53113;45.602;11.904;2022-10-22T04:28:32;101402.02;;;18.29;72.64
66090;BME280;53113;45.602;11.904;2022-10-22T04:30:58;101392.12;;;18.31;72.58
66090;BME280;53113;45.602;11.904;2022-10-22T04:33:24;101389.83;;;18.31;72.62
66090;BME280;53113;45.602;11.904;2022-10-22T04:35:50;101392.71;;;18.30;72.67
66090;BME280;53113;45.602;11.904;2022-10-22T04:38:16;101382.33;;;18.30;72.67
66090;BME280;53113;45.602;11.904;2022-10-22T04:40:42;101384.66;;;18.32;72.68
66090;BME280;53113;45.602;11.904;2022-10-22T04:43:07;101383.23;;;18.33;72.69
66090;BME280;53113;45.602;11.904;2022-10-22T04:45:34;101382.36;;;18.34;72.69
66090;BME280;53113;45.602;11.904;2022-10-22T04:48:00;101385.61;;;18.33;72.67
66090;BME280;53113;45.602;11.904;2022-10-22T04:50:26;101377.80;;;18.32;72.78
66090;BME280;53113;45.602;11.904;2022-10-22T04:52:53;101378.52;;;18.33;72.87
66090;BME280;53113;45.602;11.904;2022-10-22T04:55:19;101381.22;;;18.34;72.81
66090;BME280;53113;45.602;11.904;2022-10-22T04:57:46;101387.41;;;18.37;72.88
66090;BME280;53113;45.602;11.904;2022-10-22T05:00:12;101389.72;;;18.39;72.87
66090;BME280;53113;45.602;11.904;2022-10-22T05:02:38;101394.29;;;18.40;72.86
66090;BME280;53113;45.602;11.904;2022-10-22T05:05:07;101386.67;;;18.40;72.91
66090;BME280;53113;45.602;11.904;2022-10-22T05:07:33;101368.91;;;18.39;73.08
66090;BME280;53113;45.602;11.904;2022-10-22T05:09:59;101367.63;;;18.39;73.06
66090;BME280;53113;45.602;11.904;2022-10-22T05:12:27;101361.67;;;18.39;73.00
66090;BME280;53113;45.602;11.904;2022-10-22T05:14:54;101357.84;;;18.38;73.15
66090;BME280;53113;45.602;11.904;2022-10-22T05:17:20;101353.61;;;18.38;73.05
66090;BME280;53113;45.602;11.904;2022-10-22T05:19:46;101353.96;;;18.36;73.12
66090;BME280;53113;45.602;11.904;2022-10-22T05:22:12;101353.57;;;18.34;73.23
66090;BME280;53113;45.602;11.904;2022-10-22T05:24:37;101351.36;;;18.33;73.19
66090;BME280;53113;45.602;11.904;2022-10-22T05:27:04;101352.18;;;18.34;73.23
66090;BME280;53113;45.602;11.904;2022-10-22T05:29:29;101352.41;;;18.35;73.34
66090;BME280;53113;45.602;11.904;2022-10-22T05:31:55;101344.61;;;18.36;73.30
66090;BME280;53113;45.602;11.904;2022-10-22T05:34:21;101349.48;;;18.36;73.32
66090;BME280;53113;45.602;11.904;2022-10-22T05:36:47;101356.90;;;18.35;73.32
66090;BME280;53113;45.602;11.904;2022-10-22T05:39:13;101360.29;;;18.34;73.36
66090;BME280;53113;45.602;11.904;2022-10-22T05:41:39;101360.84;;;18.33;73.43
66090;BME280;53113;45.602;11.904;2022-10-22T05:44:05;101355.48;;;18.35;73.39
66090;BME280;53113;45.602;11.904;2022-10-22T05:46:34;101356.08;;;18.36;73.33
66090;BME280;53113;45.602;11.904;2022-10-22T05:49:04;101350.36;;;18.36;73.25
66090;BME280;53113;45.602;11.904;2022-10-22T05:51:32;101353.45;;;18.36;73.38
66090;BME280;53113;45.602;11.904;2022-10-22T05:54:01;101351.67;;;18.34;73.40
66090;BME280;53113;45.602;11.904;2022-10-22T05:56:28;101353.92;;;18.33;73.38
66090;BME280;53113;45.602;11.904;2022-10-22T05:58:56;101355.28;;;18.35;73.39
66090;BME280;53113;45.602;11.904;2022-10-22T06:01:25;101351.27;;;18.38;73.47
66090;BME280;53113;45.602;11.904;2022-10-22T06:03:55;101361.33;;;18.37;73.39
66090;BME280;53113;45.602;11.904;2022-10-22T06:06:40;101367.38;;;18.36;73.50
66090;BME280;53113;45.602;11.904;2022-10-22T06:09:28;101367.27;;;18.35;73.42
66090;BME280;53113;45.602;11.904;2022-10-22T06:11:57;101369.83;;;18.37;73.44
66090;BME280;53113;45.602;11.904;2022-10-22T06:14:24;101372.30;;;18.39;73.47
66090;BME280;53113;45.602;11.904;2022-10-22T06:16:51;101365.64;;;18.41;73.48
66090;BME280;53113;45.602;11.904;2022-10-22T06:19:19;101368.06;;;18.42;73.59
66090;BME280;53113;45.602;11.904;2022-10-22T06:21:46;101375.88;;;18.43;73.65
66090;BME280;53113;45.602;11.904;2022-10-22T06:24:12;101371.66;;;18.42;73.67
66090;BME280;53113;45.602;11.904;2022-10-22T06:26:39;101379.79;;;18.43;73.59
66090;BME280;53113;45.602;11.904;2022-10-22T06:29:06;101375.52;;;18.44;73.67
66090;BME280;53113;45.602;11.904;2022-10-22T06:31:32;101376.35;;;18.47;73.71
66090;BME280;53113;45.602;11.904;2022-10-22T06:34:05;101375.02;;;18.48;73.67
66090;BME280;53113;45.602;11.904;2022-10-22T06:36:32;101380.39;;;18.48;73.63
66090;BME280;53113;45.602;11.904;2022-10-22T06:38:58;101391.41;;;18.47;73.66
66090;BME280;53113;45.602;11.904;2022-10-22T06:41:24;101393.28;;;18.48;73.72
66090;BME280;53113;45.602;11.904;2022-10-22T06:43:52;101388.08;;;18.50;73.75
66090;BME280;53113;45.602;11.904;2022-10-22T06:46:20;101383.70;;;18.52;73.90
66090;BME280;53113;45.602;11.904;2022-10-22T06:48:51;101391.01;;;18.53;73.73
66090;BME280;53113;45.602;11.904;2022-10-22T06:51:18;101400.55;;;18.54;73.89
66090;BME280;53113;45.602;11.904;2022-10-22T06:53:45;101402.63;;;18.55;73.94
66090;BME280;53113;45.602;11.904;2022-10-22T06:56:14;101403.65;;;18.57;73.97
66090;BME280;53113;45.602;11.904;2022-10-22T06:58:40;101401.65;;;18.61;73.92
66090;BME280;53113;45.602;11.904;2022-10-22T07:01:08;101401.23;;;18.67;73.96
66090;BME280;53113;45.602;11.904;2022-10-22T07:03:35;101404.24;;;18.71;73.92
66090;BME280;53113;45.602;11.904;2022-10-22T07:06:04;101395.42;;;18.75;74.00
66090;BME280;53113;45.602;11.904;2022-10-22T07:08:31;101400.84;;;18.79;74.07
66090;BME280;53113;45.602;11.904;2022-10-22T07:11:12;101415.10;;;18.81;74.01
66090;BME280;53113;45.602;11.904;2022-10-22T07:13:38;101417.51;;;18.84;73.96
66090;BME280;53113;45.602;11.904;2022-10-22T07:16:06;101417.10;;;18.86;73.96
66090;BME280;53113;45.602;11.904;2022-10-22T07:18:33;101415.67;;;18.90;73.91
66090;BME280;53113;45.602;11.904;2022-10-22T07:20:59;101415.66;;;18.95;73.91
66090;BME280;53113;45.602;11.904;2022-10-22T07:23:26;101417.90;;;19.00;73.92
66090;BME280;53113;45.602;11.904;2022-10-22T07:25:52;101419.14;;;19.04;73.78
66090;BME280;53113;45.602;11.904;2022-10-22T07:28:18;101420.17;;;19.06;73.80
66090;BME280;53113;45.602;11.904;2022-10-22T07:30:44;101421.02;;;19.08;73.70
66090;BME280;53113;45.602;11.904;2022-10-22T07:33:10;101417.89;;;19.11;73.70
66090;BME280;53113;45.602;11.904;2022-10-22T07:35:37;101417.52;;;19.15;73.49
66090;BME280;53113;45.602;11.904;2022-10-22T07:38:05;101420.91;;;19.18;73.53
66090;BME280;53113;45.602;11.904;2022-10-22T07:40:31;101425.42;;;19.21;73.43
66090;BME280;53113;45.602;11.904;2022-10-22T07:42:58;101423.23;;;19.23;73.51
66090;BME280;53113;45.602;11.904;2022-10-22T07:45:23;101418.30;;;19.24;73.56
66090;BME280;53113;45.602;11.904;2022-10-22T07:47:49;101419.73;;;19.28;73.63
66090;BME280;53113;45.602;11.904;2022-10-22T07:50:16;101417.33;;;19.34;73.63
66090;BME280;53113;45.602;11.904;2022-10-22T07:52:42;101419.42;;;19.40;73.72
66090;BME280;53113;45.602;11.904;2022-10-22T07:55:08;101417.23;;;19.45;73.80
66090;BME280;53113;45.602;11.904;2022-10-22T07:57:34;101420.26;;;19.51;73.83
66090;BME280;53113;45.602;11.904;2022-10-22T08:00:05;101425.46;;;19.56;73.88
66090;BME280;53113;45.602;11.904;2022-10-22T08:02:31;101426.42;;;19.64;73.99
66090;BME280;53113;45.602;11.904;2022-10-22T08:04:57;101433.02;;;19.74;73.97
66090;BME280;53113;45.602;11.904;2022-10-22T08:07:24;101434.59;;;19.83;74.02
66090;BME280;53113;45.602;11.904;2022-10-22T08:09:50;101436.10;;;19.93;73.94
66090;BME280;53113;45.602;11.904;2022-10-22T08:12:16;101433.27;;;20.01;74.01
66090;BME280;53113;45.602;11.904;2022-10-22T08:14:42;101436.20;;;20.07;73.61
66090;BME280;53113;45.602;11.904;2022-10-22T08:17:08;101438.20;;;20.14;73.55
66090;BME280;53113;45.602;11.904;2022-10-22T08:19:34;101440.89;;;20.22;73.54
66090;BME280;53113;45.602;11.904;2022-10-22T08:22:01;101446.14;;;20.30;73.13
66090;BME280;53113;45.602;11.904;2022-10-22T08:24:27;101452.30;;;20.35;72.87
66090;BME280;53113;45.602;11.904;2022-10-22T08:26:53;101452.30;;;20.39;72.65
66090;BME280;53113;45.602;11.904;2022-10-22T08:29:23;101445.55;;;20.40;72.51
66090;BME280;53113;45.602;11.904;2022-10-22T08:31:52;101446.72;;;20.41;72.43
66090;BME280;53113;45.602;11.904;2022-10-22T08:34:19;101438.77;;;20.43;72.29
66090;BME280;53113;45.602;11.904;2022-10-22T08:36:45;101430.96;;;20.45;72.15
66090;BME280;53113;45.602;11.904;2022-10-22T08:39:11;101426.54;;;20.47;71.89
66090;BME280;53113;45.602;11.904;2022-10-22T08:49:53;101421.41;;;20.59;71.51
66090;BME280;53113;45.602;11.904;2022-10-22T08:52:21;101426.69;;;20.62;71.31
66090;BME280;53113;45.602;11.904;2022-10-22T08:54:58;101426.15;;;20.66;71.15
66090;BME280;53113;45.602;11.904;2022-10-22T09:06:19;101431.42;;;20.86;70.76
66090;BME280;53113;45.602;11.904;2022-10-22T09:08:47;101432.64;;;20.91;70.74
66090;BME280;53113;45.602;11.904;2022-10-22T09:11:31;101435.83;;;20.99;70.74
66090;BME280;53113;45.602;11.904;2022-10-22T09:13:59;101439.34;;;21.09;70.56
66090;BME280;53113;45.602;11.904;2022-10-22T09:21:53;101426.05;;;21.45;70.79
66090;BME280;53113;45.602;11.904;2022-10-22T09:24:38;101426.64;;;21.66;70.38
66090;BME280;53113;45.602;11.904;2022-10-22T09:27:13;101434.63;;;21.81;69.92
66090;BME280;53113;45.602;11.904;2022-10-22T09:29:39;101439.30;;;21.92;69.38
66090;BME280;53113;45.602;11.904;2022-10-22T09:32:05;101432.89;;;21.99;69.02
66090;BME280;53113;45.602;11.904;2022-10-22T09:34:32;101429.11;;;22.08;68.82
66090;BME280;53113;45.602;11.904;2022-10-22T09:37:05;101429.36;;;22.15;68.61
66090;BME280;53113;45.602;11.904;2022-10-22T09:41:59;101426.10;;;22.25;67.92
66090;BME280;53113;45.602;11.904;2022-10-22T09:44:25;101431.48;;;22.25;67.73
66090;BME280;53113;45.602;11.904;2022-10-22T09:46:51;101430.32;;;22.27;67.84
66090;BME280;53113;45.602;11.904;2022-10-22T09:49:23;101435.30;;;22.26;68.65
66090;BME280;53113;45.602;11.904;2022-10-22T09:51:58;101442.11;;;22.24;69.01
66090;BME280;53113;45.602;11.904;2022-10-22T09:54:37;101446.40;;;22.18;68.98
66090;BME280;53113;45.602;11.904;2022-10-22T09:59:38;101432.05;;;21.99;69.12
66090;BME280;53113;45.602;11.904;2022-10-22T10:02:13;101433.64;;;21.88;69.24
66090;BME280;53113;45.602;11.904;2022-10-22T10:04:52;101441.52;;;21.76;69.54
66090;BME280;53113;45.602;11.904;2022-10-22T10:07:29;101447.44;;;21.68;70.22
66090;BME280;53113;45.602;11.904;2022-10-22T10:09:55;101451.53;;;21.67;71.10
66090;BME280;53113;45.602;11.904;2022-10-22T10:12:44;101455.52;;;21.70;71.43
66090;BME280;53113;45.602;11.904;2022-10-22T10:18:24;101447.29;;;21.76;71.73
66090;BME280;53113;45.602;11.904;2022-10-22T10:21:12;101448.01;;;21.74;71.62
66090;BME280;53113;45.602;11.904;2022-10-22T10:23:49;101444.06;;;21.71;71.46
66090;BME280;53113;45.602;11.904;2022-10-22T10:26:27;101450.93;;;21.66;71.38
66090;BME280;53113;45.602;11.904;2022-10-22T10:31:29;101449.61;;;21.60;71.07
66090;BME280;53113;45.602;11.904;2022-10-22T10:37:00;101456.68;;;21.56;71.56
66090;BME280;53113;45.602;11.904;2022-10-22T10:42:59;101456.99;;;21.50;71.81
66090;BME280;53113;45.602;11.904;2022-10-22T10:45:40;101460.40;;;21.50;71.92
66090;BME280;53113;45.602;11.904;2022-10-22T11:07:16;101463.89;;;21.71;71.35
66090;BME280;53113;45.602;11.904;2022-10-22T11:09:53;101478.46;;;21.68;70.94
66090;BME280;53113;45.602;11.904;2022-10-22T11:12:30;101482.89;;;21.62;70.71
66090;BME280;53113;45.602;11.904;2022-10-22T11:15:02;101474.76;;;21.54;70.45
66090;BME280;53113;45.602;11.904;2022-10-22T11:17:39;101481.30;;;21.44;70.23
66090;BME280;53113;45.602;11.904;2022-10-22T11:25:29;101491.19;;;21.11;70.27
66090;BME280;53113;45.602;11.904;2022-10-22T11:31:04;101477.77;;;20.95;70.71
66090;BME280;53113;45.602;11.904;2022-10-22T11:33:41;101477.34;;;20.88;70.85
66090;BME280;53113;45.602;11.904;2022-10-22T11:36:10;101478.71;;;20.81;71.04
66090;BME280;53113;45.602;11.904;2022-10-22T11:38:37;101475.95;;;20.77;71.33
66090;BME280;53113;45.602;11.904;2022-10-22T11:41:12;101489.09;;;20.75;71.41
66090;BME280;53113;45.602;11.904;2022-10-22T11:49:03;101500.94;;;20.65;71.49
66090;BME280;53113;45.602;11.904;2022-10-22T11:51:36;101512.31;;;20.60;71.62
66090;BME280;53113;45.602;11.904;2022-10-22T11:54:39;101517.18;;;20.56;71.53
66090;BME280;53113;45.602;11.904;2022-10-22T12:02:44;101528.00;;;20.44;71.59
66090;BME280;53113;45.602;11.904;2022-10-22T12:07:56;101541.13;;;20.33;71.87
66090;BME280;53113;45.602;11.904;2022-10-22T12:10:33;101507.22;;;20.29;72.00
66090;BME280;53113;45.602;11.904;2022-10-22T12:13:10;101501.63;;;20.28;72.10
66090;BME280;53113;45.602;11.904;2022-10-22T12:15:45;101530.50;;;20.25;72.06
66090;BME280;53113;45.602;11.904;2022-10-22T12:18:13;101526.34;;;20.22;71.97
66090;BME280;53113;45.602;11.904;2022-10-22T12:20:40;101520.73;;;20.17;72.19
66090;BME280;53113;45.602;11.904;2022-10-22T12:23:10;101508.16;;;20.13;72.58
66090;BME280;53113;45.602;11.904;2022-10-22T12:25:38;101511.98;;;20.11;72.64
66090;BME280;53113;45.602;11.904;2022-10-22T12:28:04;101493.64;;;20.08;72.80
66090;BME280;53113;45.602;11.904;2022-10-22T12:30:36;101487.95;;;20.04;72.68
66090;BME280;53113;45.602;11.904;2022-10-22T12:33:05;101494.80;;;20.00;73.01
66090;BME280;53113;45.602;11.904;2022-10-22T12:35:42;101501.61;;;19.97;73.35
66090;BME280;53113;45.602;11.904;2022-10-22T12:38:17;101496.39;;;19.95;73.44
66090;BME280;53113;45.602;11.904;2022-10-22T12:40:45;101491.58;;;19.95;73.68
66090;BME280;53113;45.602;11.904;2022-10-22T12:43:14;101486.90;;;19.95;74.00
66090;BME280;53113;45.602;11.904;2022-10-22T12:45:42;101484.60;;;19.94;74.39
66090;BME280;53113;45.602;11.904;2022-10-22T12:48:31;101490.38;;;19.94;74.68
66090;BME280;53113;45.602;11.904;2022-10-22T12:51:01;101489.42;;;19.93;75.04
66090;BME280;53113;45.602;11.904;2022-10-22T12:53:33;101500.16;;;19.95;75.05
66090;BME280;53113;45.602;11.904;2022-10-22T12:56:13;101504.29;;;19.97;75.09
66090;BME280;53113;45.602;11.904;2022-10-22T12:58:46;101499.08;;;19.99;75.19
66090;BME280;53113;45.602;11.904;2022-10-22T13:01:14;101497.61;;;19.99;75.17
66090;BME280;53113;45.602;11.904;2022-10-22T13:03:45;101500.52;;;19.99;75.32
66090;BME280;53113;45.602;11.904;2022-10-22T13:06:12;101495.63;;;19.99;75.38
66090;BME280;53113;45.602;11.904;2022-10-22T13:08:38;101483.95;;;20.01;75.41
66090;BME280;53113;45.602;11.904;2022-10-22T13:11:08;101479.98;;;20.03;75.80
66090;BME280;53113;45.602;11.904;2022-10-22T13:16:20;101496.51;;;20.03;75.61
66090;BME280;53113;45.602;11.904;2022-10-22T13:18:50;101497.83;;;20.00;75.55
66090;BME280;53113;45.602;11.904;2022-10-22T13:21:31;101504.86;;;19.97;75.64
66090;BME280;53113;45.602;11.904;2022-10-22T13:23:59;101494.91;;;19.96;75.50
66090;BME280;53113;45.602;11.904;2022-10-22T13:26:33;101480.46;;;19.97;76.28
66090;BME280;53113;45.602;11.904;2022-10-22T13:29:02;101476.15;;;19.97;76.95
66090;BME280;53113;45.602;11.904;2022-10-22T13:31:34;101493.36;;;19.97;76.71
66090;BME280;53113;45.602;11.904;2022-10-22T13:34:06;101500.50;;;19.96;76.39
66090;BME280;53113;45.602;11.904;2022-10-22T13:36:34;101504.16;;;19.93;76.36
66090;BME280;53113;45.602;11.904;2022-10-22T13:39:01;101506.14;;;19.91;76.34
66090;BME280;53113;45.602;11.904;2022-10-22T13:41:29;101508.38;;;19.90;76.18
66090;BME280;53113;45.602;11.904;2022-10-22T13:43:57;101506.88;;;19.91;76.02
66090;BME280;53113;45.602;11.904;2022-10-22T13:46:24;101507.58;;;19.91;75.88
66090;BME280;53113;45.602;11.904;2022-10-22T13:48:53;101496.79;;;19.90;75.86
66090;BME280;53113;45.602;11.904;2022-10-22T13:51:22;101500.28;;;19.87;76.01
66090;BME280;53113;45.602;11.904;2022-10-22T13:53:51;101509.05;;;19.84;75.85
66090;BME280;53113;45.602;11.904;2022-10-22T13:56:21;101508.37;;;19.82;75.91
66090;BME280;53113;45.602;11.904;2022-10-22T13:58:48;101512.86;;;19.80;75.72
66090;BME280;53113;45.602;11.904;2022-10-22T14:03:48;101505.88;;;19.75;75.38
66090;BME280;53113;45.602;11.904;2022-10-22T14:06:15;101482.08;;;19.70;75.35
66090;BME280;53113;45.602;11.904;2022-10-22T14:08:45;101466.71;;;19.66;75.41
66090;BME280;53113;45.602;11.904;2022-10-22T14:11:13;101485.42;;;19.63;75.44
66090;BME280;53113;45.602;11.904;2022-10-22T14:13:39;101499.37;;;19.64;75.39
66090;BME280;53113;45.602;11.904;2022-10-22T14:16:10;101485.36;;;19.64;75.35
66090;BME280;53113;45.602;11.904;2022-10-22T14:18:40;101473.09;;;19.68;76.23
66090;BME280;53113;45.602;11.904;2022-10-22T14:21:06;101475.60;;;19.79;77.14
66090;BME280;53113;45.602;11.904;2022-10-22T14:23:33;101485.63;;;19.93;77.53
66090;BME280;53113;45.602;11.904;2022-10-22T14:26:01;101492.29;;;20.10;77.48
66090;BME280;53113;45.602;11.904;2022-10-22T14:28:27;101491.52;;;20.28;77.66
66090;BME280;53113;45.602;11.904;2022-10-22T14:30:53;101497.00;;;20.48;77.75
66090;BME280;53113;45.602;11.904;2022-10-22T14:35:47;101495.61;;;20.90;77.35